createdAt,value
2019-02-02T00:00:38.150Z,62.70
2019-02-02T00:03:07.844Z,71.00
2019-02-02T00:05:36.217Z,62.00
2019-02-02T00:08:05.836Z,62.53
2019-02-02T00:10:34.460Z,59.97
2019-02-02T00:13:02.920Z,68.93
2019-02-02T00:15:31.379Z,56.47
2019-02-02T00:17:59.754Z,62.80
2019-02-02T00:20:28.142Z,63.60
2019-02-02T00:22:56.519Z,56.40
2019-02-02T00:25:24.904Z,63.87
2019-02-02T00:27:53.279Z,62.77
2019-02-02T00:30:21.668Z,58.63
2019-02-02T00:32:50.044Z,66.43
2019-02-02T00:35:18.433Z,65.37
2019-02-02T00:37:46.807Z,63.93
2019-02-02T00:40:21.764Z,64.27
2019-02-02T00:42:50.145Z,63.47
2019-02-02T00:45:22.672Z,57.23
2019-02-02T00:47:52.280Z,57.43
2019-02-02T00:50:20.659Z,58.00
2019-02-02T00:52:49.112Z,68.33
2019-02-02T00:55:20.759Z,63.13
2019-02-02T00:57:53.410Z,71.00
2019-02-02T01:00:26.896Z,62.87
2019-02-02T01:02:55.339Z,62.27
2019-02-02T01:05:24.669Z,60.20
2019-02-02T01:07:54.272Z,66.87
2019-02-02T01:10:34.760Z,61.90
2019-02-02T01:13:03.368Z,59.77
2019-02-02T01:15:31.818Z,63.03
2019-02-02T01:18:00.200Z,58.50
2019-02-02T01:20:29.857Z,60.27
2019-02-02T01:22:58.410Z,57.43
2019-02-02T01:25:26.859Z,62.13
2019-02-02T01:28:04.915Z,66.27
2019-02-02T01:30:26.384Z,57.80
2019-02-02T01:32:54.825Z,56.73
2019-02-02T01:35:23.206Z,60.63
2019-02-02T01:37:51.652Z,65.33
2019-02-02T01:40:27.649Z,60.53
2019-02-02T01:43:33.333Z,60.50
2019-02-02T01:46:33.163Z,63.90
2019-02-02T01:49:02.689Z,64.00
2019-02-02T01:51:40.058Z,53.67
2019-02-02T01:57:16.694Z,57.80
2019-02-02T02:00:10.417Z,54.93
2019-02-02T02:02:51.286Z,62.00
2019-02-02T02:08:34.278Z,63.60
2019-02-02T02:11:03.508Z,55.00
2019-02-02T02:13:51.967Z,54.80
2019-02-02T02:16:39.467Z,60.47
2019-02-02T02:19:07.838Z,58.63
2019-02-02T02:21:36.238Z,70.30
2019-02-02T02:24:04.694Z,64.57
2019-02-02T02:26:52.199Z,66.90
2019-02-02T02:29:39.830Z,65.33
2019-02-02T02:32:08.215Z,64.43
2019-02-02T02:34:36.597Z,60.57
2019-02-02T02:37:04.975Z,61.40
2019-02-02T02:39:33.350Z,59.23
2019-02-02T02:42:01.737Z,62.70
2019-02-02T02:44:49.355Z,56.30
2019-02-02T02:47:17.741Z,65.30
2019-02-02T02:50:05.359Z,61.87
2019-02-02T02:52:33.743Z,56.20
2019-02-02T02:55:21.232Z,68.97
2019-02-02T02:57:49.609Z,66.20
2019-02-02T03:00:37.329Z,64.63
2019-02-02T03:03:45.660Z,69.10
2019-02-02T03:06:33.270Z,61.90
2019-02-02T03:09:41.553Z,61.83
2019-02-02T03:12:29.057Z,54.83
2019-02-02T03:20:39.577Z,60.93
2019-02-02T03:23:27.215Z,60.17
2019-02-02T03:31:37.187Z,66.10
2019-02-02T03:34:05.575Z,63.77
2019-02-02T03:36:53.188Z,67.43
2019-02-02T03:39:21.568Z,66.63
2019-02-02T03:41:49.943Z,56.47
2019-02-02T03:44:18.327Z,60.70
2019-02-02T03:46:46.697Z,54.87
2019-02-02T03:49:15.115Z,54.53
2019-02-02T03:51:43.488Z,59.63
2019-02-02T03:54:11.891Z,51.13
2019-02-02T03:56:40.263Z,56.93
2019-02-02T03:59:08.650Z,61.67
2019-02-02T04:01:37.039Z,62.33
2019-02-02T04:04:05.494Z,62.43
2019-02-02T04:06:33.868Z,58.70
2019-02-02T04:09:02.246Z,65.33
2019-02-02T04:11:30.621Z,63.63
2019-02-02T04:13:59.000Z,63.30
2019-02-02T04:16:27.478Z,69.50
2019-02-02T04:18:55.863Z,60.00
2019-02-02T04:21:24.239Z,65.40
2019-02-02T04:23:52.829Z,64.07
2019-02-02T04:26:21.246Z,64.67
2019-02-02T04:28:49.866Z,63.20
2019-02-02T04:31:18.240Z,71.20
2019-02-02T04:33:46.624Z,65.50
2019-02-02T04:36:14.999Z,65.37
2019-02-02T04:38:43.385Z,70.60
2019-02-02T04:41:11.763Z,67.10
2019-02-02T04:43:40.163Z,70.73
2019-02-02T04:46:08.535Z,63.73
2019-02-02T04:48:36.921Z,67.93
2019-02-02T04:51:05.386Z,69.87
2019-02-02T04:53:33.822Z,57.10
2019-02-02T04:56:02.214Z,72.27
2019-02-02T04:58:30.590Z,68.00
2019-02-02T05:00:58.989Z,66.60
2019-02-02T05:03:27.349Z,61.73
2019-02-02T05:05:55.734Z,64.37
2019-02-02T05:08:24.107Z,71.47
2019-02-02T05:10:52.687Z,66.03
2019-02-02T05:13:21.067Z,72.83
2019-02-02T05:15:49.452Z,74.00
2019-02-02T05:18:17.821Z,73.80
2019-02-02T05:20:46.201Z,64.57
2019-02-02T05:23:14.573Z,72.20
2019-02-02T05:25:42.959Z,69.10
2019-02-02T05:28:11.334Z,69.93
2019-02-02T05:30:39.718Z,63.90
2019-02-02T05:33:08.093Z,77.77
2019-02-02T05:35:36.800Z,80.40
2019-02-02T05:38:05.174Z,77.03
2019-02-02T05:40:33.560Z,75.83
2019-02-02T05:43:01.936Z,63.37
2019-02-02T05:45:30.317Z,69.03
2019-02-02T05:47:58.694Z,70.60
2019-02-02T05:50:27.084Z,65.13
2019-02-02T05:52:55.461Z,75.23
2019-02-02T05:55:24.386Z,79.90
2019-02-02T05:57:52.871Z,76.07
2019-02-02T06:00:36.644Z,71.50
2019-02-02T06:03:05.679Z,75.27
2019-02-02T06:05:34.064Z,82.60
2019-02-02T06:08:02.638Z,82.67
2019-02-02T06:10:31.025Z,77.43
2019-02-02T06:12:59.396Z,80.13
2019-02-02T06:15:28.839Z,77.27
2019-02-02T06:17:57.620Z,78.17
2019-02-02T06:20:25.991Z,84.67
2019-02-02T06:22:54.435Z,75.20
2019-02-02T06:25:23.106Z,95.53
2019-02-02T06:27:51.473Z,76.30
2019-02-02T06:30:21.591Z,88.63
2019-02-02T06:32:50.197Z,82.47
2019-02-02T06:35:19.263Z,82.43
2019-02-02T06:37:47.591Z,80.80
2019-02-02T06:40:17.317Z,82.20
2019-02-02T06:42:45.686Z,75.90
2019-02-02T06:45:25.773Z,85.63
2019-02-02T06:47:54.213Z,72.00
2019-02-02T06:50:22.589Z,83.63
2019-02-02T06:52:50.966Z,83.17
2019-02-02T06:55:19.413Z,73.53
2019-02-02T06:57:47.801Z,73.47
2019-02-02T07:00:18.620Z,85.43
2019-02-02T07:02:47.061Z,79.53
2019-02-02T07:05:15.588Z,69.47
2019-02-02T07:07:44.286Z,87.93
2019-02-02T07:10:16.294Z,80.40
2019-02-02T07:12:44.686Z,80.80
2019-02-02T07:15:15.797Z,76.60
2019-02-02T07:17:44.198Z,82.23
2019-02-02T07:20:13.982Z,62.10
2019-02-02T07:22:42.376Z,78.53
2019-02-02T07:25:11.487Z,75.80
2019-02-02T07:27:39.867Z,79.03
2019-02-02T07:30:27.659Z,78.57
2019-02-02T07:32:46.669Z,75.07
2019-02-02T07:35:15.110Z,83.37
2019-02-02T07:37:43.490Z,100.90
2019-02-02T07:40:15.233Z,84.87
2019-02-02T07:42:43.684Z,84.23
2019-02-02T07:45:17.750Z,80.73
2019-02-02T07:47:46.303Z,76.87
2019-02-02T07:50:16.214Z,74.53
2019-02-02T07:52:45.138Z,71.20
2019-02-02T07:55:18.426Z,74.70
2019-02-02T07:57:46.808Z,79.37
2019-02-02T08:00:23.661Z,80.77
2019-02-02T08:02:52.047Z,80.77
2019-02-02T08:05:20.423Z,86.43
2019-02-02T08:07:48.805Z,101.83
2019-02-02T08:10:17.271Z,77.47
2019-02-02T08:12:45.723Z,81.27
2019-02-02T08:15:28.525Z,83.23
2019-02-02T08:17:57.078Z,81.43
2019-02-02T08:20:25.449Z,89.17
2019-02-02T08:22:56.452Z,100.63
2019-02-02T08:25:23.929Z,83.60
2019-02-02T08:27:52.423Z,77.63
2019-02-02T08:30:23.510Z,80.07
2019-02-02T08:32:51.897Z,81.17
2019-02-02T08:35:20.608Z,71.27
2019-02-02T08:37:49.158Z,85.30
2019-02-02T08:40:19.370Z,76.43
2019-02-02T08:42:47.753Z,79.37
2019-02-02T08:45:16.603Z,77.17
2019-02-02T08:47:44.948Z,90.57
2019-02-02T08:50:25.231Z,76.17
2019-02-02T08:52:53.820Z,75.93
2019-02-02T08:55:22.212Z,77.60
2019-02-02T08:57:50.689Z,77.93
2019-02-02T09:00:20.865Z,77.10
2019-02-02T09:02:49.338Z,83.83
2019-02-02T09:05:20.270Z,72.47
2019-02-02T09:07:48.650Z,75.40
2019-02-02T09:10:25.599Z,79.80
2019-02-02T09:12:54.143Z,84.37
2019-02-02T09:15:22.542Z,80.27
2019-02-02T09:17:50.918Z,80.60
2019-02-02T09:20:19.393Z,71.50
2019-02-02T09:22:49.393Z,84.73
2019-02-02T09:25:18.916Z,76.70
2019-02-02T09:27:47.422Z,82.77
2019-02-02T09:30:18.783Z,79.23
2019-02-02T09:32:47.156Z,87.07
2019-02-02T09:35:15.673Z,75.40
2019-02-02T09:37:44.049Z,75.90
2019-02-02T09:40:17.430Z,69.00
2019-02-02T09:43:05.210Z,72.83
2019-02-02T09:45:33.593Z,71.07
2019-02-02T09:48:01.968Z,75.37
2019-02-02T09:50:30.349Z,81.73
2019-02-02T09:53:17.984Z,70.83
2019-02-02T09:56:05.670Z,84.67
2019-02-02T10:01:27.735Z,76.50
2019-02-02T10:04:10.702Z,87.87
2019-02-02T10:09:13.781Z,77.37
2019-02-02T10:14:35.663Z,88.03
2019-02-02T10:17:23.290Z,78.83
2019-02-02T10:19:51.674Z,81.57
2019-02-02T10:22:42.211Z,73.87
2019-02-02T10:25:50.504Z,76.63
2019-02-02T10:28:18.879Z,82.00
2019-02-02T10:31:06.512Z,82.13
2019-02-02T10:33:54.129Z,88.43
2019-02-02T10:36:22.586Z,75.40
2019-02-02T10:39:10.251Z,75.13
2019-02-02T10:44:12.202Z,78.03
2019-02-02T10:46:40.650Z,75.00
2019-02-02T10:51:56.526Z,75.40
2019-02-02T10:54:44.250Z,78.10
2019-02-02T10:57:12.642Z,77.47
2019-02-02T11:02:47.582Z,76.80
2019-02-02T11:05:55.944Z,77.50
2019-02-02T11:08:24.551Z,76.07
2019-02-02T11:10:54.587Z,86.80
2019-02-02T11:13:43.851Z,83.27
2019-02-02T11:16:12.251Z,74.60
2019-02-02T11:18:59.922Z,81.33
2019-02-02T11:21:28.357Z,79.00
2019-02-02T11:23:56.757Z,82.60
2019-02-02T11:26:32.057Z,89.33
2019-02-02T11:29:02.219Z,83.87
2019-02-02T11:32:02.234Z,84.30
2019-02-02T11:34:21.500Z,82.03
2019-02-02T11:37:08.999Z,82.10
2019-02-02T11:39:56.617Z,81.57
2019-02-02T11:44:58.767Z,86.77
2019-02-02T11:47:46.265Z,80.10
2019-02-02T11:50:54.552Z,95.53
2019-02-02T11:53:22.938Z,84.40
2019-02-02T11:56:13.775Z,89.13
2019-02-02T11:59:01.467Z,83.97
2019-02-02T12:01:48.966Z,84.67
2019-02-02T12:04:17.337Z,93.47
2019-02-02T12:06:45.722Z,88.30
2019-02-02T12:09:14.100Z,92.43
2019-02-02T12:11:42.490Z,92.13
2019-02-02T12:14:10.858Z,86.37
2019-02-02T12:16:58.577Z,97.93
2019-02-02T12:19:26.948Z,95.03
2019-02-02T12:21:55.330Z,94.10
2019-02-02T12:24:42.951Z,92.27
2019-02-02T12:27:30.447Z,91.50
2019-02-02T12:29:58.829Z,100.90
2019-02-02T12:32:46.329Z,95.87
2019-02-02T12:35:34.053Z,99.13
2019-02-02T12:38:02.442Z,92.97
2019-02-02T12:40:50.130Z,99.10
2019-02-02T12:43:57.119Z,99.47
2019-02-02T12:46:25.497Z,94.37
2019-02-02T12:48:53.904Z,91.13
2019-02-02T12:51:22.278Z,93.90
2019-02-02T12:54:09.999Z,96.80
2019-02-02T12:56:38.371Z,99.07
2019-02-02T12:59:46.667Z,94.43
2019-02-02T13:02:38.243Z,101.90
2019-02-02T13:05:23.588Z,102.90
2019-02-02T13:07:51.971Z,100.50
2019-02-02T13:11:00.261Z,103.50
2019-02-02T13:13:47.904Z,102.13
2019-02-02T13:16:16.280Z,122.20
2019-02-02T13:19:04.008Z,122.67
2019-02-02T13:21:51.635Z,104.03
2019-02-02T13:24:20.020Z,115.60
2019-02-02T13:27:07.651Z,113.40
2019-02-02T13:29:55.284Z,113.97
2019-02-02T13:35:51.025Z,118.37
2019-02-02T13:38:19.423Z,109.80
2019-02-02T13:41:06.911Z,114.73
2019-02-02T13:43:35.295Z,114.73
2019-02-02T13:46:23.184Z,115.37
2019-02-02T13:51:25.972Z,119.43
2019-02-02T13:54:06.290Z,119.40
2019-02-02T13:56:43.719Z,117.40
2019-02-02T14:01:45.805Z,119.50
2019-02-02T14:04:33.320Z,126.17
2019-02-02T14:07:01.707Z,120.97
2019-02-02T14:12:03.915Z,111.07
2019-02-02T14:14:32.304Z,122.33
2019-02-02T14:17:00.685Z,121.87
2019-02-02T14:19:29.067Z,112.53
2019-02-02T14:21:57.451Z,118.77
2019-02-02T14:24:25.840Z,128.87
2019-02-02T14:26:54.222Z,129.00
2019-02-02T14:29:22.751Z,123.37
2019-02-02T14:31:51.126Z,121.93
2019-02-02T14:34:19.522Z,133.47
2019-02-02T14:36:47.895Z,130.93
2019-02-02T14:39:16.282Z,121.20
2019-02-02T14:41:44.658Z,141.40
2019-02-02T14:44:13.097Z,124.40
2019-02-02T14:46:41.471Z,131.30
2019-02-02T14:49:09.929Z,122.17
2019-02-02T14:51:38.306Z,132.10
2019-02-02T14:54:06.684Z,123.27
2019-02-02T14:56:35.076Z,142.23
2019-02-02T14:59:03.928Z,139.73
2019-02-02T15:01:32.345Z,119.93
2019-02-02T15:04:00.825Z,133.43
2019-02-02T15:06:29.326Z,123.47
2019-02-02T15:08:57.698Z,138.63
2019-02-02T15:11:26.159Z,135.67
2019-02-02T15:13:54.546Z,145.60
2019-02-02T15:16:22.944Z,154.33
2019-02-02T15:18:51.320Z,145.20
2019-02-02T15:21:19.702Z,138.87
2019-02-02T15:23:48.080Z,142.97
2019-02-02T15:26:16.470Z,148.03
2019-02-02T15:28:44.864Z,148.27
2019-02-02T15:31:13.263Z,145.90
2019-02-02T15:33:41.644Z,141.80
2019-02-02T15:36:10.040Z,152.97
2019-02-02T15:38:38.435Z,156.93
2019-02-02T15:41:06.821Z,157.80
2019-02-02T15:43:35.200Z,151.13
2019-02-02T15:46:03.584Z,145.90
2019-02-02T15:48:31.959Z,144.33
2019-02-02T15:51:00.349Z,155.83
2019-02-02T15:53:28.735Z,154.77
2019-02-02T15:55:57.124Z,153.73
2019-02-02T15:58:25.498Z,151.40
2019-02-02T16:00:53.885Z,152.20
2019-02-02T16:03:22.258Z,136.53
2019-02-02T16:05:50.647Z,160.10
2019-02-02T16:08:19.024Z,151.13
2019-02-02T16:10:47.411Z,148.03
2019-02-02T16:13:15.799Z,160.27
2019-02-02T16:15:44.182Z,170.03
2019-02-02T16:18:12.557Z,166.40
2019-02-02T16:20:42.789Z,161.83
2019-02-02T16:23:11.226Z,162.80
2019-02-02T16:25:39.612Z,147.37
2019-02-02T16:28:08.093Z,152.83
2019-02-02T16:30:36.473Z,156.00
2019-02-02T16:33:05.248Z,162.13
2019-02-02T16:35:33.760Z,150.60
2019-02-02T16:38:02.149Z,154.77
2019-02-02T16:40:31.371Z,167.77
2019-02-02T16:42:59.750Z,155.43
2019-02-02T16:45:30.374Z,146.67
2019-02-02T16:47:59.018Z,157.07
2019-02-02T16:50:27.533Z,149.97
2019-02-02T16:52:55.924Z,157.90
2019-02-02T16:55:24.375Z,156.53
2019-02-02T16:57:52.934Z,141.70
2019-02-02T17:00:30.432Z,160.20
2019-02-02T17:02:58.907Z,157.53
2019-02-02T17:05:27.514Z,158.30
2019-02-02T17:07:56.087Z,155.80
2019-02-02T17:10:29.334Z,161.10
2019-02-02T17:12:57.786Z,158.03
2019-02-02T17:15:26.333Z,152.03
2019-02-02T17:17:54.704Z,162.30
2019-02-02T17:20:25.892Z,150.90
2019-02-02T17:22:54.282Z,166.07
2019-02-02T17:25:23.154Z,157.80
2019-02-02T17:27:51.593Z,163.87
2019-02-02T17:30:21.804Z,162.47
2019-02-02T17:32:50.823Z,146.37
2019-02-02T17:35:19.384Z,147.43
2019-02-02T17:37:47.758Z,151.73
2019-02-02T17:40:18.567Z,158.17
2019-02-02T17:42:46.950Z,155.23
2019-02-02T17:45:20.373Z,155.40
2019-02-02T17:47:49.299Z,158.70
2019-02-02T17:50:19.315Z,154.83
2019-02-02T17:52:47.947Z,152.87
2019-02-02T17:55:16.397Z,152.80
2019-02-02T17:57:44.784Z,139.83
2019-02-02T18:00:16.049Z,149.63
2019-02-02T18:02:44.452Z,167.00
2019-02-02T18:05:13.004Z,153.73
2019-02-02T18:07:41.379Z,157.17
2019-02-02T18:10:12.104Z,157.60
2019-02-02T18:12:40.700Z,145.90
2019-02-02T18:15:16.496Z,158.10
2019-02-02T18:17:44.877Z,150.47
2019-02-02T18:20:17.264Z,151.73
2019-02-02T18:22:45.711Z,147.27
2019-02-02T18:25:15.739Z,152.50
2019-02-02T18:27:44.381Z,145.53
2019-02-02T18:30:17.949Z,155.47
2019-02-02T18:32:46.415Z,153.57
2019-02-02T18:35:16.034Z,144.20
2019-02-02T18:37:44.581Z,166.70
2019-02-02T18:40:21.074Z,201.83
2019-02-02T18:42:49.600Z,153.33
2019-02-02T18:45:20.428Z,202.23
2019-02-02T18:47:48.875Z,158.93
2019-02-02T18:50:18.081Z,159.27
2019-02-02T18:52:48.106Z,183.03
2019-02-02T18:55:28.397Z,163.30
2019-02-02T18:57:56.783Z,145.80
2019-02-02T19:00:25.270Z,147.63
2019-02-02T19:02:53.735Z,135.57
2019-02-02T19:05:22.246Z,170.47
2019-02-02T19:07:50.700Z,144.27
2019-02-02T19:10:24.824Z,141.43
2019-02-02T19:12:53.205Z,143.10
2019-02-02T19:15:21.591Z,149.77
2019-02-02T19:17:49.982Z,157.47
2019-02-02T19:20:20.494Z,171.47
2019-02-02T19:22:48.943Z,159.73
2019-02-02T19:25:17.504Z,159.50
2019-02-02T19:27:45.884Z,157.40
2019-02-02T19:30:33.546Z,183.60
2019-02-02T19:33:01.918Z,175.90
2019-02-02T19:35:30.403Z,168.47
2019-02-02T19:37:58.771Z,156.60
2019-02-02T19:40:27.158Z,157.50
2019-02-02T19:42:55.590Z,163.60
2019-02-02T19:45:28.140Z,160.87
2019-02-02T19:47:56.528Z,175.53
2019-02-02T19:50:26.787Z,183.47
2019-02-02T19:52:55.408Z,154.03
2019-02-02T19:55:23.852Z,174.37
2019-02-02T19:57:52.225Z,177.40
2019-02-02T20:00:31.647Z,157.47
2019-02-02T20:03:00.285Z,164.20
2019-02-02T20:05:29.333Z,159.97
2019-02-02T20:07:57.731Z,161.93
2019-02-02T20:10:26.111Z,158.43
2019-02-02T20:12:54.555Z,164.00
2019-02-02T20:15:24.962Z,189.57
2019-02-02T20:17:53.408Z,169.83
2019-02-02T20:21:01.696Z,156.00
2019-02-02T20:23:49.412Z,159.30
2019-02-02T20:31:26.150Z,139.17
2019-02-02T20:34:13.845Z,155.90
2019-02-02T20:37:01.485Z,165.47
2019-02-02T20:42:36.530Z,156.97
2019-02-02T20:45:44.893Z,157.97
2019-02-02T20:48:32.535Z,147.50
2019-02-02T20:51:02.641Z,144.03
2019-02-02T20:53:31.068Z,146.90
2019-02-02T20:56:18.709Z,145.83
2019-02-02T20:58:47.087Z,130.93
2019-02-02T21:01:17.201Z,144.60
2019-02-02T21:04:04.702Z,141.27
2019-02-02T21:06:52.364Z,146.40
2019-02-02T21:09:20.747Z,146.63
2019-02-02T21:11:56.540Z,156.70
2019-02-02T21:14:38.630Z,143.07
2019-02-02T21:17:08.746Z,155.10
2019-02-02T21:19:37.214Z,150.93
2019-02-02T21:22:05.773Z,157.30
2019-02-02T21:24:34.170Z,169.90
2019-02-02T21:27:02.639Z,156.87
2019-02-02T21:29:31.024Z,155.03
2019-02-02T21:31:59.690Z,153.53
2019-02-02T21:34:28.063Z,167.13
2019-02-02T21:36:56.511Z,165.97
2019-02-02T21:39:25.015Z,166.33
2019-02-02T21:41:53.403Z,164.90
2019-02-02T21:44:21.775Z,171.07
2019-02-02T21:46:50.162Z,182.03
2019-02-02T21:49:18.539Z,163.23
2019-02-02T21:51:47.165Z,199.00
2019-02-02T21:54:15.617Z,181.17
2019-02-02T21:56:44.007Z,176.90
2019-02-02T21:59:12.385Z,163.83
2019-02-02T22:01:40.763Z,179.33
2019-02-02T22:04:09.156Z,164.57
2019-02-02T22:06:37.574Z,190.40
2019-02-02T22:09:07.700Z,175.40
2019-02-02T22:11:36.155Z,179.73
2019-02-02T22:14:05.055Z,187.03
2019-02-02T22:16:33.541Z,189.87
2019-02-02T22:19:02.184Z,184.03
2019-02-02T22:21:30.565Z,181.23
2019-02-02T22:23:58.955Z,170.83
2019-02-02T22:26:27.444Z,184.30
2019-02-02T22:28:57.849Z,167.30
2019-02-02T22:31:25.943Z,190.93
2019-02-02T22:33:54.395Z,183.43
2019-02-02T22:36:27.633Z,168.03
2019-02-02T22:38:52.932Z,185.00
2019-02-02T22:41:21.566Z,180.10
2019-02-02T22:43:49.950Z,169.63
2019-02-02T22:46:18.402Z,168.97
2019-02-02T22:48:46.795Z,192.97
2019-02-02T22:51:15.168Z,183.97
2019-02-02T22:53:43.558Z,167.23
2019-02-02T22:56:12.387Z,176.67
2019-02-02T22:58:40.771Z,174.43
2019-02-02T23:01:15.505Z,178.63
2019-02-02T23:04:02.419Z,177.07
2019-02-02T23:06:39.306Z,180.30
2019-02-02T23:09:26.454Z,177.10
2019-02-02T23:12:00.623Z,191.53
2019-02-02T23:14:32.058Z,200.90
2019-02-02T23:17:00.437Z,180.87
2019-02-02T23:19:29.024Z,162.07
2019-02-02T23:21:57.414Z,166.27
2019-02-02T23:24:25.789Z,171.57
2019-02-02T23:26:54.173Z,182.77
2019-02-02T23:29:22.691Z,170.60
2019-02-02T23:31:51.741Z,179.33
2019-02-02T23:34:20.196Z,157.77
2019-02-02T23:36:52.615Z,159.17
2019-02-02T23:39:18.693Z,161.13
2019-02-02T23:41:47.115Z,156.00
2019-02-02T23:44:15.500Z,144.53
2019-02-02T23:46:43.880Z,161.50
2019-02-02T23:49:12.269Z,147.53
2019-02-02T23:51:40.647Z,136.00
2019-02-02T23:54:09.413Z,155.90
2019-02-02T23:56:37.796Z,159.70
2019-02-02T23:59:06.200Z,159.40
